createdAt,value
2023-04-09T00:00:00.090Z, 7.6
2023-04-09T00:02:00.098Z, 7.6
2023-04-09T00:04:00.206Z, 8.8
2023-04-09T00:06:00.090Z, 8.8
2023-04-09T00:08:00.042Z, 8.1
2023-04-09T00:10:00.059Z, 8.1
2023-04-09T00:12:00.066Z, 8.1
2023-04-09T00:14:00.149Z, 7.6
2023-04-09T00:16:00.184Z, 7.6
2023-04-09T00:18:00.231Z, 8.1
2023-04-09T00:20:00.195Z, 8.1
2023-04-09T00:22:00.103Z, 8.1
2023-04-09T00:24:00.128Z, 7.8
2023-04-09T00:26:00.127Z, 7.8
2023-04-09T00:28:00.127Z, 8.3
2023-04-09T00:30:00.166Z, 8.3
2023-04-09T00:32:00.197Z, 8.3
2023-04-09T00:34:00.149Z, 8
2023-04-09T00:36:00.204Z, 8
2023-04-09T00:38:00.145Z, 8.3
2023-04-09T00:40:00.155Z, 8.3
2023-04-09T00:42:00.249Z, 8.3
2023-04-09T00:44:00.072Z, 8.1
2023-04-09T00:46:00.078Z, 8.1
2023-04-09T00:48:00.126Z, 8.4
2023-04-09T00:50:00.053Z, 8.4
2023-04-09T00:52:00.052Z, 8.4
2023-04-09T00:54:00.062Z, 8.4
2023-04-09T00:56:00.117Z, 8.4
2023-04-09T00:58:00.063Z, 9
2023-04-09T01:00:00.068Z, 9
2023-04-09T01:02:00.136Z, 9
2023-04-09T01:04:00.056Z, 7.8
2023-04-09T01:06:00.060Z, 7.8
2023-04-09T01:08:00.102Z, 8.8
2023-04-09T01:10:00.046Z, 8.8
2023-04-09T01:12:00.050Z, 8.8
2023-04-09T01:14:00.133Z, 8.4
2023-04-09T01:16:00.115Z, 8.4
2023-04-09T01:18:00.204Z, 8.4
2023-04-09T01:20:00.137Z, 8.4
2023-04-09T01:22:00.103Z, 8.4
2023-04-09T01:24:00.124Z, 9.3
2023-04-09T01:26:00.136Z, 9.3
2023-04-09T01:28:00.151Z, 8
2023-04-09T01:30:00.117Z, 8
2023-04-09T01:32:00.125Z, 8
2023-04-09T01:34:00.123Z, 8
2023-04-09T01:36:00.152Z, 8
2023-04-09T01:38:00.116Z, 7.9
2023-04-09T01:40:00.133Z, 7.9
2023-04-09T01:42:00.118Z, 7.9
2023-04-09T01:44:00.089Z, 7.9
2023-04-09T01:46:00.188Z, 7.9
2023-04-09T01:48:00.150Z, 8.5
2023-04-09T01:50:00.111Z, 8.5
2023-04-09T01:52:00.090Z, 8.3
2023-04-09T01:54:00.137Z, 8.3
2023-04-09T01:56:00.077Z, 8.3
2023-04-09T01:58:00.099Z, 8
2023-04-09T02:00:00.092Z, 8
2023-04-09T02:02:00.212Z, 7.7
2023-04-09T02:04:00.147Z, 7.7
2023-04-09T02:06:00.113Z, 7.7
2023-04-09T02:08:00.071Z, 8.4
2023-04-09T02:10:00.104Z, 8.4
2023-04-09T02:12:00.109Z, 8.5
2023-04-09T02:14:00.078Z, 8.5
2023-04-09T02:16:00.137Z, 8.5
2023-04-09T02:18:00.153Z, 7.2
2023-04-09T02:20:00.122Z, 7.2
2023-04-09T02:22:00.085Z, 8.1
2023-04-09T02:24:00.140Z, 8.1
2023-04-09T02:26:00.112Z, 8.1
2023-04-09T02:28:00.073Z, 8.1
2023-04-09T02:30:00.106Z, 8.1
2023-04-09T02:32:00.120Z, 7.8
2023-04-09T02:34:00.123Z, 7.8
2023-04-09T02:36:00.105Z, 7.8
2023-04-09T02:38:00.077Z, 8.4
2023-04-09T02:40:00.100Z, 8.4
2023-04-09T02:42:00.133Z, 8.9
2023-04-09T02:44:00.078Z, 8.9
2023-04-09T02:46:00.170Z, 8.9
2023-04-09T02:48:00.140Z, 8.4
2023-04-09T02:50:00.132Z, 8.4
2023-04-09T02:52:00.065Z, 8.1
2023-04-09T02:54:00.081Z, 8.1
2023-04-09T02:56:00.061Z, 8.1
2023-04-09T02:58:00.098Z, 7.2
2023-04-09T03:00:00.079Z, 7.2
2023-04-09T03:02:00.222Z, 7.8
2023-04-09T03:04:00.148Z, 7.8
2023-04-09T03:06:00.097Z, 7.8
2023-04-09T03:08:00.066Z, 7.8
2023-04-09T03:10:00.071Z, 7.8
2023-04-09T03:12:00.113Z, 8.2
2023-04-09T03:14:00.088Z, 8.2
2023-04-09T03:16:00.128Z, 8.2
2023-04-09T03:18:00.169Z, 7.5
2023-04-09T03:20:00.127Z, 7.5
2023-04-09T03:22:00.111Z, 8
2023-04-09T03:24:00.132Z, 8
2023-04-09T03:26:00.100Z, 8
2023-04-09T03:28:00.126Z, 8.3
2023-04-09T03:30:00.158Z, 8.3
2023-04-09T03:32:00.118Z, 8
2023-04-09T03:34:00.123Z, 8
2023-04-09T03:36:00.170Z, 8
2023-04-09T03:38:00.141Z, 7.4
2023-04-09T03:40:00.144Z, 7.4
2023-04-09T03:42:00.184Z, 8.7
2023-04-09T03:44:00.072Z, 8.7
2023-04-09T03:46:00.060Z, 8.7
2023-04-09T03:48:00.114Z, 9.6
2023-04-09T03:50:00.062Z, 9.6
2023-04-09T03:52:00.100Z, 9
2023-04-09T03:54:00.080Z, 9
2023-04-09T03:56:00.052Z, 9
2023-04-09T03:58:00.060Z, 8.5
2023-04-09T04:00:00.071Z, 8.5
2023-04-09T04:02:00.118Z, 8.8
2023-04-09T04:04:00.129Z, 8.8
2023-04-09T04:06:00.056Z, 8.8
2023-04-09T04:08:00.071Z, 8.9
2023-04-09T04:10:00.060Z, 8.9
2023-04-09T04:12:00.044Z, 8.2
2023-04-09T04:14:00.108Z, 8.2
2023-04-09T04:16:00.126Z, 8.2
2023-04-09T04:18:00.127Z, 8.6
2023-04-09T04:20:00.376Z, 8.6
2023-04-09T04:22:00.137Z, 9.6
2023-04-09T04:24:00.130Z, 9.6
2023-04-09T04:26:00.126Z, 9.5
2023-04-09T04:28:00.125Z, 9.4
2023-04-09T04:30:00.301Z, 9.4
2023-04-09T04:32:00.284Z, 9
2023-04-09T04:34:00.163Z, 9
2023-04-09T04:36:00.207Z, 9.5
2023-04-09T04:38:00.141Z, 9.5
2023-04-09T04:40:00.146Z, 9.5
2023-04-09T04:42:00.114Z, 8.9
2023-04-09T04:44:00.082Z, 8.9
2023-04-09T04:46:00.149Z, 9.1
2023-04-09T04:48:00.110Z, 9.1
2023-04-09T04:50:00.067Z, 9.1
2023-04-09T04:52:00.067Z, 9.1
2023-04-09T04:54:00.063Z, 9.1
2023-04-09T04:56:00.067Z, 9.1
2023-04-09T04:58:00.061Z, 9.1
2023-04-09T05:00:00.075Z, 9.1
2023-04-09T05:02:00.107Z, 8.7
2023-04-09T05:04:00.151Z, 8.7
2023-04-09T05:06:00.070Z, 8.4
2023-04-09T05:08:00.080Z, 8.4
2023-04-09T05:10:00.057Z, 8.4
2023-04-09T05:12:00.053Z, 8.7
2023-04-09T05:14:00.110Z, 8.7
2023-04-09T05:16:00.114Z, 8.5
2023-04-09T05:18:00.216Z, 8.5
2023-04-09T05:20:00.171Z, 8.5
2023-04-09T05:22:00.104Z, 8.4
2023-04-09T05:24:00.136Z, 8.4
2023-04-09T05:26:00.121Z, 6.9
2023-04-09T05:28:00.137Z, 6.9
2023-04-09T05:30:00.998Z, 6.9
2023-04-09T05:32:00.129Z, 8.1
2023-04-09T05:34:00.114Z, 8.1
2023-04-09T05:36:00.186Z, 7.9
2023-04-09T05:38:00.150Z, 7.9
2023-04-09T05:40:00.180Z, 7.9
2023-04-09T05:42:00.134Z, 8.5
2023-04-09T05:44:00.980Z, 8.5
2023-04-09T05:46:00.121Z, 8.3
2023-04-09T05:48:00.193Z, 8.3
2023-04-09T05:50:00.047Z, 8.3
2023-04-09T05:52:00.069Z, 7.4
2023-04-09T05:54:00.060Z, 7.4
2023-04-09T05:56:00.058Z, 7.9
2023-04-09T05:58:00.065Z, 7.9
2023-04-09T06:00:00.065Z, 7.9
2023-04-09T06:02:00.133Z, 7.5
2023-04-09T06:04:00.358Z, 7.5
2023-04-09T06:06:00.056Z, 7.8
2023-04-09T06:08:00.049Z, 7.8
2023-04-09T06:10:00.060Z, 7.8
2023-04-09T06:12:00.058Z, 8.3
2023-04-09T06:14:00.119Z, 8.3
2023-04-09T06:16:00.157Z, 9.6
2023-04-09T06:18:00.168Z, 9.6
2023-04-09T06:20:00.158Z, 9.6
2023-04-09T06:22:00.097Z, 10
2023-04-09T06:24:00.127Z, 10
2023-04-09T06:26:00.119Z, 10.1
2023-04-09T06:28:00.125Z, 10.1
2023-04-09T06:30:00.191Z, 10.1
2023-04-09T06:32:00.109Z, 10.4
2023-04-09T06:34:00.157Z, 10.4
2023-04-09T06:36:00.249Z, 10.3
2023-04-09T06:38:00.147Z, 10.3
2023-04-09T06:40:01.443Z, 10.3
2023-04-09T06:42:00.165Z, 9.8
2023-04-09T06:44:00.061Z, 9.8
2023-04-09T06:46:00.040Z, 10.3
2023-04-09T06:48:00.093Z, 10.3
2023-04-09T06:50:00.049Z, 10.3
2023-04-09T06:52:00.097Z, 10.6
2023-04-09T06:54:00.233Z, 10.6
2023-04-09T06:56:00.054Z, 11.1
2023-04-09T06:58:00.062Z, 11.1
2023-04-09T07:00:00.059Z, 11.1
2023-04-09T07:02:00.109Z, 11.1
2023-04-09T07:04:00.192Z, 11.1
2023-04-09T07:06:00.065Z, 10.7
2023-04-09T07:08:00.043Z, 10.7
2023-04-09T07:10:00.049Z, 10.7
2023-04-09T07:12:00.046Z, 11.1
2023-04-09T07:14:00.093Z, 11.1
2023-04-09T07:16:00.150Z, 11.1
2023-04-09T07:18:00.188Z, 11.1
2023-04-09T07:20:00.313Z, 11.3
2023-04-09T07:22:00.136Z, 12.1
2023-04-09T07:24:00.140Z, 12.1
2023-04-09T07:26:00.114Z, 12.8
2023-04-09T07:28:00.156Z, 12.8
2023-04-09T07:30:00.152Z, 14.5
2023-04-09T07:32:00.104Z, 14.5
2023-04-09T07:34:00.133Z, 14.5
2023-04-09T07:36:00.227Z, 13.8
2023-04-09T07:38:00.111Z, 13.8
2023-04-09T07:40:00.121Z, 12.9
2023-04-09T07:42:00.122Z, 12.9
2023-04-09T07:44:00.067Z, 12.9
2023-04-09T07:46:00.410Z, 12.8
2023-04-09T07:48:00.173Z, 12.8
2023-04-09T07:50:00.086Z, 13.2
2023-04-09T07:52:00.058Z, 13.2
2023-04-09T07:54:00.090Z, 13.2
2023-04-09T07:56:00.065Z, 14.3
2023-04-09T07:58:00.050Z, 14.3
2023-04-09T08:00:00.102Z, 15.4
2023-04-09T08:02:00.176Z, 15.4
2023-04-09T08:04:00.196Z, 15.4
2023-04-09T08:06:00.085Z, 14.8
2023-04-09T08:08:00.047Z, 14.8
2023-04-09T08:10:00.078Z, 14.8
2023-04-09T08:12:00.064Z, 14.8
2023-04-09T08:14:00.119Z, 14.8
2023-04-09T08:16:00.177Z, 15.4
2023-04-09T08:18:00.188Z, 15.4
2023-04-09T08:20:00.142Z, 16.5
2023-04-09T08:22:00.123Z, 16.5
2023-04-09T08:24:00.138Z, 16.5
2023-04-09T08:26:00.120Z, 16.6
2023-04-09T08:28:00.137Z, 16.6
2023-04-09T08:30:00.164Z, 17.1
2023-04-09T08:32:00.228Z, 17.1
2023-04-09T08:34:00.135Z, 17.1
2023-04-09T08:36:01.926Z, 16.9
2023-04-09T08:38:00.132Z, 16.9
2023-04-09T08:40:00.149Z, 17.5
2023-04-09T08:42:00.111Z, 17.5
2023-04-09T08:44:00.253Z, 17.5
2023-04-09T08:46:00.100Z, 19.5
2023-04-09T08:48:00.198Z, 19.5
2023-04-09T08:50:00.102Z, 16.4
2023-04-09T08:52:01.168Z, 16.4
2023-04-09T08:54:03.028Z, 16.4
2023-04-09T08:56:00.064Z, 17.9
2023-04-09T08:58:00.071Z, 17.9
2023-04-09T09:00:00.089Z, 15.7
2023-04-09T09:02:00.250Z, 15.7
2023-04-09T09:04:00.218Z, 15.7
2023-04-09T09:06:00.075Z, 18.1
2023-04-09T09:08:00.058Z, 18.1
2023-04-09T09:10:00.047Z, 16.4
2023-04-09T09:12:00.062Z, 16.4
2023-04-09T09:14:00.135Z, 16.4
2023-04-09T09:16:00.126Z, 14.9
2023-04-09T09:18:00.193Z, 14.9
2023-04-09T09:20:00.133Z, 13.2
2023-04-09T09:22:00.135Z, 13.2
2023-04-09T09:24:00.138Z, 13.2
2023-04-09T09:26:00.112Z, 14.7
2023-04-09T09:28:00.132Z, 14.7
2023-04-09T09:30:00.154Z, 14.3
2023-04-09T09:32:00.157Z, 14.3
2023-04-09T09:34:00.110Z, 14.3
2023-04-09T09:36:00.219Z, 20.9
2023-04-09T09:38:00.130Z, 20.9
2023-04-09T09:40:00.124Z, 12.6
2023-04-09T09:42:00.108Z, 12.6
2023-04-09T09:44:00.072Z, 12.6
2023-04-09T09:46:00.090Z, 12.6
2023-04-09T09:48:00.126Z, 12.6
2023-04-09T09:50:00.070Z, 13
2023-04-09T09:52:00.060Z, 13
2023-04-09T09:54:00.083Z, 13
2023-04-09T09:56:00.056Z, 12.7
2023-04-09T09:58:00.052Z, 12.7
2023-04-09T10:00:00.067Z, 10.6
2023-04-09T10:02:00.252Z, 10.6
2023-04-09T10:04:00.114Z, 10.6
2023-04-09T10:06:00.074Z, 13
2023-04-09T10:08:00.054Z, 13
2023-04-09T10:10:00.051Z, 12.8
2023-04-09T10:12:00.044Z, 12.8
2023-04-09T10:14:00.106Z, 12.8
2023-04-09T10:16:00.223Z, 12.2
2023-04-09T10:18:00.202Z, 12.2
2023-04-09T10:20:00.139Z, 12.5
2023-04-09T10:22:00.112Z, 12.5
2023-04-09T10:24:00.157Z, 12.5
2023-04-09T10:26:00.170Z, 11.3
2023-04-09T10:28:00.187Z, 11.3
2023-04-09T10:30:00.160Z, 13.2
2023-04-09T10:32:00.113Z, 13.2
2023-04-09T10:34:00.110Z, 13.2
2023-04-09T10:36:00.170Z, 14.2
2023-04-09T10:38:00.104Z, 14.2
2023-04-09T10:40:00.125Z, 13.7
2023-04-09T10:42:00.113Z, 13.7
2023-04-09T10:44:00.094Z, 13.7
2023-04-09T10:46:00.107Z, 11.4
2023-04-09T10:48:00.151Z, 11.4
2023-04-09T10:50:00.070Z, 12.8
2023-04-09T10:52:00.062Z, 12.8
2023-04-09T10:54:00.053Z, 12.8
2023-04-09T10:56:00.042Z, 11.5
2023-04-09T10:58:00.046Z, 11.5
2023-04-09T11:00:00.055Z, 13.3
2023-04-09T11:02:00.244Z, 13.3
2023-04-09T11:04:00.064Z, 13.3
2023-04-09T11:06:00.085Z, 12.7
2023-04-09T11:08:00.042Z, 12.7
2023-04-09T11:10:00.057Z, 11.9
2023-04-09T11:12:00.052Z, 11.9
2023-04-09T11:14:00.107Z, 11.3
2023-04-09T11:16:00.313Z, 10.7
2023-04-09T11:18:00.207Z, 10.7
2023-04-09T11:20:00.138Z, 12.2
2023-04-09T11:22:00.128Z, 12.2
2023-04-09T11:24:00.120Z, 11.9
2023-04-09T11:26:00.145Z, 11.9
2023-04-09T11:28:00.127Z, 11.9
2023-04-09T11:30:00.184Z, 11.3
2023-04-09T11:32:00.245Z, 11.3
2023-04-09T11:34:00.124Z, 10.4
2023-04-09T11:36:00.137Z, 10.4
2023-04-09T11:38:00.135Z, 10.4
2023-04-09T11:40:00.193Z, 9.5
2023-04-09T11:42:00.121Z, 9.5
2023-04-09T11:44:00.060Z, 10.4
2023-04-09T11:46:00.061Z, 10.4
2023-04-09T11:48:00.159Z, 10.4
2023-04-09T11:50:00.058Z, 11.4
2023-04-09T11:52:00.057Z, 11.4
2023-04-09T11:54:00.067Z, 10.3
2023-04-09T11:56:00.049Z, 10.3
2023-04-09T11:58:00.048Z, 10.3
2023-04-09T12:00:00.572Z, 10.8
2023-04-09T12:02:00.152Z, 10.8
2023-04-09T12:04:00.433Z, 11.6
2023-04-09T12:06:00.059Z, 11.6
2023-04-09T12:08:00.061Z, 11.6
2023-04-09T12:10:00.057Z, 10.5
2023-04-09T12:12:00.051Z, 10.5
2023-04-09T12:14:00.116Z, 11.4
2023-04-09T12:16:00.134Z, 11.4
2023-04-09T12:18:00.161Z, 11.4
2023-04-09T12:20:00.153Z, 12.3
2023-04-09T12:22:00.117Z, 12.3
2023-04-09T12:24:00.110Z, 11.3
2023-04-09T12:26:00.143Z, 11.3
2023-04-09T12:28:00.132Z, 11.3
2023-04-09T12:30:00.203Z, 11
2023-04-09T12:32:00.147Z, 11
2023-04-09T12:34:00.141Z, 11.1
2023-04-09T12:36:00.199Z, 11.1
2023-04-09T12:38:00.114Z, 11.1
2023-04-09T12:40:00.133Z, 11.4
2023-04-09T12:42:00.131Z, 11.4
2023-04-09T12:44:00.071Z, 12
2023-04-09T12:46:00.177Z, 12
2023-04-09T12:48:00.103Z, 12
2023-04-09T12:50:00.059Z, 11.7
2023-04-09T12:52:00.082Z, 11.7
2023-04-09T12:54:00.063Z, 11.5
2023-04-09T12:56:00.052Z, 11.5
2023-04-09T12:58:00.058Z, 11.5
2023-04-09T13:00:00.080Z, 12.1
2023-04-09T13:02:00.172Z, 12.1
2023-04-09T13:04:00.223Z, 12.7
2023-04-09T13:06:00.066Z, 12.7
2023-04-09T13:08:00.046Z, 12.7
2023-04-09T13:10:00.061Z, 13.4
2023-04-09T13:12:00.063Z, 13.4
2023-04-09T13:14:00.140Z, 12.7
2023-04-09T13:16:00.129Z, 12.7
2023-04-09T13:18:00.172Z, 12.7
2023-04-09T13:20:00.254Z, 13.1
2023-04-09T13:22:00.136Z, 13.1
2023-04-09T13:24:00.116Z, 13.6
2023-04-09T13:26:00.126Z, 13.6
2023-04-09T13:28:00.132Z, 13.6
2023-04-09T13:30:00.155Z, 14.4
2023-04-09T13:32:00.106Z, 14.4
2023-04-09T13:34:00.128Z, 12.8
2023-04-09T13:36:00.177Z, 12.8
2023-04-09T13:38:00.140Z, 12.8
2023-04-09T13:40:00.163Z, 13.3
2023-04-09T13:42:00.132Z, 13.3
2023-04-09T13:44:00.074Z, 13
2023-04-09T13:46:00.087Z, 13
2023-04-09T13:48:00.124Z, 13
2023-04-09T13:50:00.051Z, 12.8
2023-04-09T13:52:00.091Z, 12.8
2023-04-09T13:54:00.063Z, 13.5
2023-04-09T13:56:00.048Z, 13.5
2023-04-09T13:58:00.051Z, 13.5
2023-04-09T14:00:00.070Z, 13.2
2023-04-09T14:02:00.235Z, 13.2
2023-04-09T14:04:00.185Z, 14
2023-04-09T14:06:00.057Z, 14
2023-04-09T14:08:00.058Z, 14
2023-04-09T14:10:00.079Z, 14
2023-04-09T14:12:00.059Z, 14
2023-04-09T14:14:00.119Z, 13.2
2023-04-09T14:16:00.631Z, 13.2
2023-04-09T14:18:00.177Z, 13.2
2023-04-09T14:20:00.147Z, 14
2023-04-09T14:22:00.115Z, 14
2023-04-09T14:24:00.179Z, 13.8
2023-04-09T14:26:00.151Z, 13.8
2023-04-09T14:28:00.136Z, 13.8
2023-04-09T14:30:00.131Z, 13.3
2023-04-09T14:32:00.110Z, 13.3
2023-04-09T14:34:00.132Z, 15.8
2023-04-09T14:36:00.205Z, 15.8
2023-04-09T14:38:00.123Z, 15.8
2023-04-09T14:40:00.124Z, 13.1
2023-04-09T14:42:00.108Z, 13.1
2023-04-09T14:44:00.066Z, 13.1
2023-04-09T14:46:00.060Z, 13.1
2023-04-09T14:48:00.111Z, 13.1
2023-04-09T14:50:00.201Z, 13.5
2023-04-09T14:52:00.077Z, 13.5
2023-04-09T14:54:00.090Z, 12.2
2023-04-09T14:56:00.066Z, 12.2
2023-04-09T14:58:00.050Z, 12.2
2023-04-09T15:00:00.076Z, 12.7
2023-04-09T15:02:00.166Z, 12.7
2023-04-09T15:04:00.250Z, 11.9
2023-04-09T15:06:00.143Z, 11.9
2023-04-09T15:08:00.055Z, 11.9
2023-04-09T15:10:00.073Z, 11.9
2023-04-09T15:12:00.054Z, 11.9
2023-04-09T15:14:00.106Z, 10.8
2023-04-09T15:16:00.164Z, 10.8
2023-04-09T15:18:00.206Z, 11
2023-04-09T15:20:00.139Z, 11.2
2023-04-09T15:22:00.137Z, 11.2
2023-04-09T15:24:00.157Z, 12
2023-04-09T15:26:00.157Z, 12
2023-04-09T15:28:00.132Z, 12
2023-04-09T15:30:00.129Z, 12
2023-04-09T15:32:00.228Z, 12
2023-04-09T15:34:00.110Z, 11.1
2023-04-09T15:36:00.199Z, 11.1
2023-04-09T15:38:00.165Z, 11.7
2023-04-09T15:40:00.131Z, 11.7
2023-04-09T15:42:00.149Z, 11.7
2023-04-09T15:44:00.071Z, 11.6
2023-04-09T15:46:00.150Z, 11.6
2023-04-09T15:48:00.131Z, 11.4
2023-04-09T15:50:00.082Z, 11.4
2023-04-09T15:52:00.067Z, 11.4
2023-04-09T15:54:00.075Z, 11.9
2023-04-09T15:56:00.072Z, 11.9
2023-04-09T15:58:00.041Z, 11.6
2023-04-09T16:00:00.077Z, 11.6
2023-04-09T16:02:00.104Z, 11.6
2023-04-09T16:04:00.093Z, 12.8
2023-04-09T16:06:00.069Z, 12.8
2023-04-09T16:08:00.174Z, 12.6
2023-04-09T16:10:00.050Z, 12.6
2023-04-09T16:12:00.054Z, 12.6
2023-04-09T16:14:00.083Z, 11.9
2023-04-09T16:16:00.127Z, 11.9
2023-04-09T16:18:00.173Z, 11.4
2023-04-09T16:20:00.143Z, 11.4
2023-04-09T16:22:00.097Z, 11.4
2023-04-09T16:24:00.112Z, 11.8
2023-04-09T16:26:00.106Z, 11.8
2023-04-09T16:28:00.111Z, 12.1
2023-04-09T16:30:00.182Z, 12.1
2023-04-09T16:32:00.234Z, 12.1
2023-04-09T16:34:00.110Z, 11.6
2023-04-09T16:36:00.182Z, 11.6
2023-04-09T16:38:00.129Z, 11.5
2023-04-09T16:40:00.143Z, 11.5
2023-04-09T16:42:00.149Z, 11.5
2023-04-09T16:44:00.052Z, 11.2
2023-04-09T16:46:00.096Z, 11.2
2023-04-09T16:48:00.103Z, 11.3
2023-04-09T16:50:00.046Z, 11.3
2023-04-09T16:52:00.045Z, 11.3
2023-04-09T16:54:00.357Z, 11.9
2023-04-09T16:56:00.074Z, 11.9
2023-04-09T16:58:00.050Z, 12.7
2023-04-09T17:00:00.056Z, 12.7
2023-04-09T17:02:00.131Z, 12.7
2023-04-09T17:04:00.155Z, 11.4
2023-04-09T17:06:00.047Z, 11.4
2023-04-09T17:08:00.052Z, 11
2023-04-09T17:10:00.049Z, 11
2023-04-09T17:12:00.072Z, 11
2023-04-09T17:14:00.115Z, 11.2
2023-04-09T17:16:00.127Z, 11.2
2023-04-09T17:18:00.229Z, 12.7
2023-04-09T17:20:00.147Z, 12.7
2023-04-09T17:22:00.109Z, 12.7
2023-04-09T17:24:00.153Z, 12.7
2023-04-09T17:26:00.110Z, 12.7
2023-04-09T17:28:00.132Z, 12.5
2023-04-09T17:30:00.185Z, 12.5
2023-04-09T17:32:00.097Z, 12.5
2023-04-09T17:34:00.111Z, 11.8
2023-04-09T17:36:00.172Z, 11.8
2023-04-09T17:38:00.113Z, 11.9
2023-04-09T17:40:00.132Z, 11.9
2023-04-09T17:42:00.135Z, 11.9
2023-04-09T17:44:00.076Z, 11.8
2023-04-09T17:46:00.260Z, 11.8
2023-04-09T17:48:00.136Z, 14.3
2023-04-09T17:50:00.107Z, 14.3
2023-04-09T17:52:00.065Z, 14.3
2023-04-09T17:54:00.095Z, 23.4
2023-04-09T17:56:00.062Z, 23.4
2023-04-09T17:58:00.049Z, 11.9
2023-04-09T18:00:00.139Z, 11.9
2023-04-09T18:02:00.245Z, 11.9
2023-04-09T18:04:00.350Z, 11.9
2023-04-09T18:06:00.073Z, 11.9
2023-04-09T18:08:00.085Z, 12
2023-04-09T18:10:00.055Z, 12
2023-04-09T18:12:00.060Z, 12
2023-04-09T18:14:00.106Z, 12.9
2023-04-09T18:16:00.174Z, 12.9
2023-04-09T18:18:00.129Z, 13.1
2023-04-09T18:20:00.116Z, 13.1
2023-04-09T18:22:00.123Z, 13.1
2023-04-09T18:24:00.116Z, 12
2023-04-09T18:26:00.110Z, 12
2023-04-09T18:28:00.109Z, 11.7
2023-04-09T18:30:00.148Z, 11.7
2023-04-09T18:32:00.160Z, 11.7
2023-04-09T18:34:00.117Z, 11.7
2023-04-09T18:36:00.139Z, 11.7
2023-04-09T18:38:00.123Z, 11.7
2023-04-09T18:40:02.337Z, 11.7
2023-04-09T18:42:00.179Z, 11.7
2023-04-09T18:44:00.058Z, 11.8
2023-04-09T18:46:00.069Z, 11.8
2023-04-09T18:48:00.137Z, 11.1
2023-04-09T18:50:00.054Z, 11.1
2023-04-09T18:52:00.077Z, 11.1
2023-04-09T18:54:00.084Z, 11.1
2023-04-09T18:56:00.060Z, 11.1
2023-04-09T18:58:00.050Z, 12.3
2023-04-09T19:00:00.065Z, 12.3
2023-04-09T19:02:00.158Z, 12.3
2023-04-09T19:04:00.165Z, 11.8
2023-04-09T19:06:00.146Z, 11.8
2023-04-09T19:08:00.060Z, 11.2
2023-04-09T19:10:00.049Z, 11.2
2023-04-09T19:12:00.061Z, 11.2
2023-04-09T19:14:00.102Z, 10.1
2023-04-09T19:16:00.176Z, 10.1
2023-04-09T19:18:00.222Z, 9.9
2023-04-09T19:20:00.191Z, 9.9
2023-04-09T19:22:00.121Z, 9.9
2023-04-09T19:24:00.144Z, 10.9
2023-04-09T19:26:00.126Z, 10.9
2023-04-09T19:28:00.139Z, 10.5
2023-04-09T19:30:00.141Z, 10.5
2023-04-09T19:32:00.279Z, 11.4
2023-04-09T19:34:00.123Z, 11.7
2023-04-09T19:36:00.157Z, 11.7
2023-04-09T19:38:01.121Z, 10.7
2023-04-09T19:40:00.114Z, 10.7
2023-04-09T19:42:00.120Z, 8
2023-04-09T19:44:00.068Z, 8
2023-04-09T19:46:00.068Z, 8
2023-04-09T19:48:00.164Z, 8.4
2023-04-09T19:50:00.087Z, 8.4
2023-04-09T19:52:00.130Z, 7.7
2023-04-09T19:54:00.085Z, 7.7
2023-04-09T19:56:00.054Z, 7.7
2023-04-09T19:58:00.058Z, 9.5
2023-04-09T20:00:00.129Z, 9.5
2023-04-09T20:02:00.280Z, 10.7
2023-04-09T20:04:00.146Z, 10.7
2023-04-09T20:06:00.084Z, 10.7
2023-04-09T20:08:00.070Z, 9.4
2023-04-09T20:10:00.060Z, 9.4
2023-04-09T20:12:00.073Z, 9.1
2023-04-09T20:14:00.068Z, 9.1
2023-04-09T20:15:59.992Z, 9.1
2023-04-09T20:18:00.071Z, 9.6
2023-04-09T20:20:00.148Z, 9.6
2023-04-09T20:22:00.191Z, 10
2023-04-09T20:24:00.226Z, 10
2023-04-09T20:26:00.156Z, 10
2023-04-09T20:28:00.041Z, 9.3
2023-04-09T20:30:00.050Z, 9.3
2023-04-09T20:32:00.112Z, 8.4
2023-04-09T20:34:00.034Z, 8.4
2023-04-09T20:36:00.013Z, 8.4
2023-04-09T20:37:59.992Z, 8.2
2023-04-09T20:39:59.993Z, 8.2
2023-04-09T20:42:00.024Z, 8.4
2023-04-09T20:44:00.124Z, 8.4
2023-04-09T20:46:00.150Z, 8.4
2023-04-09T20:48:00.198Z, 8.1
2023-04-09T20:50:00.182Z, 8.1
2023-04-09T20:52:00.130Z, 8.1
2023-04-09T20:54:00.123Z, 8.1
2023-04-09T20:56:00.132Z, 8.1
2023-04-09T20:58:00.187Z, 8
2023-04-09T21:00:00.156Z, 8
2023-04-09T21:02:00.247Z, 9.4
2023-04-09T21:04:00.215Z, 9.4
2023-04-09T21:06:00.134Z, 9.4
2023-04-09T21:08:00.107Z, 8.1
2023-04-09T21:10:00.157Z, 8.1
2023-04-09T21:12:00.130Z, 7.8
2023-04-09T21:14:00.121Z, 7.8
2023-04-09T21:16:00.095Z, 7.8
2023-04-09T21:18:00.185Z, 7.8
2023-04-09T21:20:00.079Z, 7.8
2023-04-09T21:22:00.073Z, 9.6
2023-04-09T21:24:00.108Z, 9.6
2023-04-09T21:26:00.092Z, 9.6
2023-04-09T21:28:00.052Z, 9.9
2023-04-09T21:30:00.074Z, 9.9
2023-04-09T21:32:00.068Z, 10.5
2023-04-09T21:34:00.079Z, 10.5
2023-04-09T21:36:00.129Z, 10.5
2023-04-09T21:38:00.056Z, 11.3
2023-04-09T21:40:00.069Z, 11.3
2023-04-09T21:42:00.066Z, 12.1
2023-04-09T21:44:00.106Z, 12.1
2023-04-09T21:46:00.153Z, 12.1
2023-04-09T21:48:00.213Z, 11.5
2023-04-09T21:50:00.161Z, 11.5
2023-04-09T21:52:00.129Z, 10.4
2023-04-09T21:54:00.170Z, 10.4
2023-04-09T21:56:00.845Z, 10.4
2023-04-09T21:58:00.145Z, 10.6
2023-04-09T22:00:00.171Z, 10.6
2023-04-09T22:02:00.257Z, 11.5
2023-04-09T22:04:00.224Z, 11.5
2023-04-09T22:06:00.143Z, 11.5
2023-04-09T22:08:00.128Z, 10
2023-04-09T22:10:00.167Z, 10
2023-04-09T22:12:00.165Z, 9.6
2023-04-09T22:14:00.102Z, 9.6
2023-04-09T22:16:00.123Z, 9.6
2023-04-09T22:18:00.140Z, 9.2
2023-04-09T22:20:00.073Z, 9.2
2023-04-09T22:22:00.078Z, 8.9
2023-04-09T22:24:00.109Z, 8.9
2023-04-09T22:26:00.050Z, 8.8
2023-04-09T22:28:00.075Z, 8.8
2023-04-09T22:30:00.075Z, 8.8
2023-04-09T22:32:00.070Z, 9
2023-04-09T22:34:02.140Z, 9
2023-04-09T22:36:00.235Z, 8.4
2023-04-09T22:38:00.058Z, 8.4
2023-04-09T22:40:00.048Z, 8.4
2023-04-09T22:42:00.069Z, 8.2
2023-04-09T22:44:00.118Z, 8.2
2023-04-09T22:46:00.104Z, 8.3
2023-04-09T22:48:00.166Z, 8.3
2023-04-09T22:50:00.135Z, 8.3
2023-04-09T22:52:00.139Z, 7.3
2023-04-09T22:54:00.129Z, 7.3
2023-04-09T22:56:00.157Z, 7.6
2023-04-09T22:58:00.170Z, 7.6
2023-04-09T23:00:00.232Z, 7.6
2023-04-09T23:02:00.255Z, 8.4
2023-04-09T23:04:00.128Z, 8.4
2023-04-09T23:06:00.137Z, 8.2
2023-04-09T23:08:00.113Z, 8.2
2023-04-09T23:10:00.146Z, 8.2
2023-04-09T23:12:00.142Z, 6.8
2023-04-09T23:14:00.070Z, 6.8
2023-04-09T23:16:00.131Z, 7.1
2023-04-09T23:18:00.136Z, 7.1
2023-04-09T23:20:00.068Z, 7.1
2023-04-09T23:22:00.087Z, 7.7
2023-04-09T23:24:00.100Z, 7.7
2023-04-09T23:26:00.091Z, 7
2023-04-09T23:28:00.073Z, 7
2023-04-09T23:32:33.483Z, 7
2023-04-09T23:32:34.077Z, 7
2023-04-09T23:34:00.104Z, 8.2
2023-04-09T23:36:00.117Z, 7.1
2023-04-09T23:38:00.092Z, 7.1
2023-04-09T23:40:00.113Z, 7.1
2023-04-09T23:42:00.121Z, 8.4
2023-04-09T23:44:00.135Z, 8.4
2023-04-09T23:46:00.123Z, 9.2
2023-04-09T23:48:00.240Z, 9.2
2023-04-09T23:50:00.129Z, 9.2
2023-04-09T23:52:00.122Z, 8.6
2023-04-09T23:54:00.118Z, 8.6
2023-04-09T23:56:00.108Z, 8.6
2023-04-09T23:58:00.107Z, 8.6
